sensor_id;sensor_type;location;lat;lon;timestamp;pressure;altitude;pressure_sealevel;temperature;humidity
10127;BME280;13080;42.608;23.362;2023-03-18T00:00:47;150672.44;;;-1.73;99.70
10127;BME280;13080;42.608;23.362;2023-03-18T00:03:14;150668.59;;;-1.75;99.07
10127;BME280;13080;42.608;23.362;2023-03-18T00:05:41;150666.00;;;-1.76;98.47
10127;BME280;13080;42.608;23.362;2023-03-18T00:08:09;150672.44;;;-1.73;98.51
10127;BME280;13080;42.608;23.362;2023-03-18T00:10:36;150673.69;;;-1.73;98.93
10127;BME280;13080;42.608;23.362;2023-03-18T00:13:03;150668.59;;;-1.75;98.83
10127;BME280;13080;42.608;23.362;2023-03-18T00:15:32;150658.31;;;-1.79;98.74
10127;BME280;13080;42.608;23.362;2023-03-18T00:17:59;150646.75;;;-1.83;99.48
10127;BME280;13080;42.608;23.362;2023-03-18T00:20:26;150640.31;;;-1.86;99.45
10127;BME280;13080;42.608;23.362;2023-03-18T00:23:05;150642.88;;;-1.85;99.97
10127;BME280;13080;42.608;23.362;2023-03-18T00:25:33;150644.16;;;-1.84;100.00
10127;BME280;13080;42.608;23.362;2023-03-18T00:28:00;150648.00;;;-1.83;99.90
10127;BME280;13080;42.608;23.362;2023-03-18T00:30:26;150650.56;;;-1.82;100.00
10127;BME280;13080;42.608;23.362;2023-03-18T00:32:55;150644.16;;;-1.84;99.95
10127;BME280;13080;42.608;23.362;2023-03-18T00:35:23;150635.19;;;-1.88;100.00
10127;BME280;13080;42.608;23.362;2023-03-18T00:37:52;150639.00;;;-1.86;100.00
10127;BME280;13080;42.608;23.362;2023-03-18T00:40:19;150630.03;;;-1.90;100.00
10127;BME280;13080;42.608;23.362;2023-03-18T00:42:53;150627.44;;;-1.91;99.71
10127;BME280;13080;42.608;23.362;2023-03-18T00:45:26;150621.00;;;-1.94;99.19
10127;BME280;13080;42.608;23.362;2023-03-18T00:47:55;150617.13;;;-1.95;99.37
10127;BME280;13080;42.608;23.362;2023-03-18T00:50:22;150610.72;;;-1.98;99.33
10127;BME280;13080;42.608;23.362;2023-03-18T00:52:49;150610.72;;;-1.98;99.67
10127;BME280;13080;42.608;23.362;2023-03-18T00:55:18;150600.41;;;-2.02;99.79
10127;BME280;13080;42.608;23.362;2023-03-18T00:57:45;150588.84;;;-2.06;100.00
10127;BME280;13080;42.608;23.362;2023-03-18T01:00:12;150590.19;;;-2.06;100.00
10127;BME280;13080;42.608;23.362;2023-03-18T01:02:41;150583.72;;;-2.09;100.00
10127;BME280;13080;42.608;23.362;2023-03-18T01:05:11;150588.84;;;-2.06;99.54
10127;BME280;13080;42.608;23.362;2023-03-18T01:07:38;150564.44;;;-2.16;100.00
10127;BME280;13080;42.608;23.362;2023-03-18T01:10:06;150563.19;;;-2.17;99.90
10127;BME280;13080;42.608;23.362;2023-03-18T01:12:35;150555.44;;;-2.20;100.00
10127;BME280;13080;42.608;23.362;2023-03-18T01:15:02;150547.75;;;-2.23;100.00
10127;BME280;13080;42.608;23.362;2023-03-18T01:17:30;150540.03;;;-2.26;100.00
10127;BME280;13080;42.608;23.362;2023-03-18T01:19:57;150542.59;;;-2.25;100.00
10127;BME280;13080;42.608;23.362;2023-03-18T01:22:26;150538.72;;;-2.26;100.00
10127;BME280;13080;42.608;23.362;2023-03-18T01:24:52;150550.34;;;-2.22;100.00
10127;BME280;13080;42.608;23.362;2023-03-18T01:27:19;150542.59;;;-2.25;100.00
10127;BME280;13080;42.608;23.362;2023-03-18T01:29:47;150538.72;;;-2.26;100.00
10127;BME280;13080;42.608;23.362;2023-03-18T01:32:13;150531.03;;;-2.30;100.00
10127;BME280;13080;42.608;23.362;2023-03-18T01:34:40;150533.63;;;-2.28;100.00
10127;BME280;13080;42.608;23.362;2023-03-18T01:37:07;150528.47;;;-2.31;100.00
10127;BME280;13080;42.608;23.362;2023-03-18T01:39:35;150511.78;;;-2.37;100.00
10127;BME280;13080;42.608;23.362;2023-03-18T01:42:02;150505.34;;;-2.40;100.00
10127;BME280;13080;42.608;23.362;2023-03-18T01:44:29;150505.34;;;-2.40;100.00
10127;BME280;13080;42.608;23.362;2023-03-18T01:46:56;150504.03;;;-2.40;100.00
10127;BME280;13080;42.608;23.362;2023-03-18T01:49:27;150505.34;;;-2.40;100.00
10127;BME280;13080;42.608;23.362;2023-03-18T01:51:58;150507.91;;;-2.39;100.00
10127;BME280;13080;42.608;23.362;2023-03-18T01:54:27;150509.19;;;-2.38;100.00
10127;BME280;13080;42.608;23.362;2023-03-18T01:56:57;150511.78;;;-2.37;100.00
10127;BME280;13080;42.608;23.362;2023-03-18T01:59:26;150504.03;;;-2.40;100.00
10127;BME280;13080;42.608;23.362;2023-03-18T02:01:57;150495.06;;;-2.44;100.00
10127;BME280;13080;42.608;23.362;2023-03-18T02:04:29;150487.31;;;-2.47;100.00
10127;BME280;13080;42.608;23.362;2023-03-18T02:06:58;150482.19;;;-2.49;100.00
10127;BME280;13080;42.608;23.362;2023-03-18T02:09:25;150480.91;;;-2.49;100.00
10127;BME280;13080;42.608;23.362;2023-03-18T02:11:52;150477.09;;;-2.51;100.00
10127;BME280;13080;42.608;23.362;2023-03-18T02:14:23;150483.50;;;-2.48;100.00
10127;BME280;13080;42.608;23.362;2023-03-18T02:16:56;150491.19;;;-2.45;100.00
10127;BME280;13080;42.608;23.362;2023-03-18T02:19:51;150482.19;;;-2.49;100.00
10127;BME280;13080;42.608;23.362;2023-03-18T02:22:27;150473.22;;;-2.53;100.00
10127;BME280;13080;42.608;23.362;2023-03-18T02:25:06;150471.94;;;-2.53;100.00
10127;BME280;13080;42.608;23.362;2023-03-18T02:27:39;150468.06;;;-2.55;100.00
10127;BME280;13080;42.608;23.362;2023-03-18T02:30:11;150470.63;;;-2.54;100.00
10127;BME280;13080;42.608;23.362;2023-03-18T02:32:40;150462.94;;;-2.57;100.00
10127;BME280;13080;42.608;23.362;2023-03-18T02:35:09;150453.91;;;-2.60;100.00
10127;BME280;13080;42.608;23.362;2023-03-18T02:37:37;150450.09;;;-2.62;100.00
10127;BME280;13080;42.608;23.362;2023-03-18T02:40:14;150451.38;;;-2.61;100.00
10127;BME280;13080;42.608;23.362;2023-03-18T02:42:43;150441.06;;;-2.65;100.00
10127;BME280;13080;42.608;23.362;2023-03-18T02:45:19;150441.06;;;-2.65;100.00
10127;BME280;13080;42.608;23.362;2023-03-18T02:47:50;150448.81;;;-2.62;100.00
10127;BME280;13080;42.608;23.362;2023-03-18T02:50:18;150447.50;;;-2.63;100.00
10127;BME280;13080;42.608;23.362;2023-03-18T02:52:45;150443.69;;;-2.64;100.00
10127;BME280;13080;42.608;23.362;2023-03-18T02:55:12;150447.50;;;-2.63;100.00
10127;BME280;13080;42.608;23.362;2023-03-18T02:57:39;150450.09;;;-2.62;100.00
10127;BME280;13080;42.608;23.362;2023-03-18T03:00:09;150439.81;;;-2.66;100.00
10127;BME280;13080;42.608;23.362;2023-03-18T03:02:37;150443.69;;;-2.64;100.00
10127;BME280;13080;42.608;23.362;2023-03-18T03:05:05;150435.94;;;-2.67;100.00
10127;BME280;13080;42.608;23.362;2023-03-18T03:07:33;150428.25;;;-2.70;100.00
10127;BME280;13080;42.608;23.362;2023-03-18T03:10:00;150420.50;;;-2.74;100.00
10127;BME280;13080;42.608;23.362;2023-03-18T03:12:27;150417.97;;;-2.75;100.00
10127;BME280;13080;42.608;23.362;2023-03-18T03:14:54;150414.09;;;-2.76;100.00
10127;BME280;13080;42.608;23.362;2023-03-18T03:17:22;150407.69;;;-2.79;100.00
10127;BME280;13080;42.608;23.362;2023-03-18T03:19:49;150414.09;;;-2.76;100.00
10127;BME280;13080;42.608;23.362;2023-03-18T03:22:16;150397.38;;;-2.83;100.00
10127;BME280;13080;42.608;23.362;2023-03-18T03:24:43;150406.41;;;-2.79;100.00
10127;BME280;13080;42.608;23.362;2023-03-18T03:27:10;150402.53;;;-2.81;100.00
10127;BME280;13080;42.608;23.362;2023-03-18T03:29:37;150398.72;;;-2.82;100.00
10127;BME280;13080;42.608;23.362;2023-03-18T03:32:04;150392.25;;;-2.85;100.00
10127;BME280;13080;42.608;23.362;2023-03-18T03:34:32;150382.00;;;-2.89;100.00
10127;BME280;13080;42.608;23.362;2023-03-18T03:36:59;150378.13;;;-2.90;100.00
10127;BME280;13080;42.608;23.362;2023-03-18T03:39:26;150375.53;;;-2.92;100.00
10127;BME280;13080;42.608;23.362;2023-03-18T03:41:53;150375.53;;;-2.92;100.00
10127;BME280;13080;42.608;23.362;2023-03-18T03:44:19;150376.88;;;-2.91;100.00
10127;BME280;13080;42.608;23.362;2023-03-18T03:46:46;150382.00;;;-2.89;100.00
10127;BME280;13080;42.608;23.362;2023-03-18T03:49:13;150376.88;;;-2.91;100.00
10127;BME280;13080;42.608;23.362;2023-03-18T03:51:41;150378.13;;;-2.90;100.00
10127;BME280;13080;42.608;23.362;2023-03-18T03:54:09;150374.28;;;-2.92;100.00
10127;BME280;13080;42.608;23.362;2023-03-18T03:56:37;150374.28;;;-2.92;100.00
10127;BME280;13080;42.608;23.362;2023-03-18T03:59:04;150365.31;;;-2.96;100.00
10127;BME280;13080;42.608;23.362;2023-03-18T04:01:30;150349.88;;;-3.02;100.00
10127;BME280;13080;42.608;23.362;2023-03-18T04:03:59;150356.31;;;-2.99;100.00
10127;BME280;13080;42.608;23.362;2023-03-18T04:06:27;150362.72;;;-2.97;100.00
10127;BME280;13080;42.608;23.362;2023-03-18T04:08:55;150379.41;;;-2.90;100.00
10127;BME280;13080;42.608;23.362;2023-03-18T04:11:22;150374.28;;;-2.92;100.00
10127;BME280;13080;42.608;23.362;2023-03-18T04:13:48;150366.59;;;-2.95;100.00
10127;BME280;13080;42.608;23.362;2023-03-18T04:16:15;150369.13;;;-2.94;100.00
10127;BME280;13080;42.608;23.362;2023-03-18T04:18:42;150369.13;;;-2.94;100.00
10127;BME280;13080;42.608;23.362;2023-03-18T04:21:09;150358.91;;;-2.98;100.00
10127;BME280;13080;42.608;23.362;2023-03-18T04:23:36;150364.00;;;-2.96;100.00
10127;BME280;13080;42.608;23.362;2023-03-18T04:26:04;150356.31;;;-2.99;100.00
10127;BME280;13080;42.608;23.362;2023-03-18T04:28:31;150351.16;;;-3.01;100.00
10127;BME280;13080;42.608;23.362;2023-03-18T04:30:58;150340.88;;;-3.05;100.00
10127;BME280;13080;42.608;23.362;2023-03-18T04:33:25;150338.34;;;-3.06;100.00
10127;BME280;13080;42.608;23.362;2023-03-18T04:35:52;150334.47;;;-3.08;100.00
10127;BME280;13080;42.608;23.362;2023-03-18T04:38:19;150330.59;;;-3.09;100.00
10127;BME280;13080;42.608;23.362;2023-03-18T04:40:46;150326.78;;;-3.11;100.00
10127;BME280;13080;42.608;23.362;2023-03-18T04:43:14;150317.75;;;-3.15;100.00
10127;BME280;13080;42.608;23.362;2023-03-18T04:45:41;150326.78;;;-3.11;100.00
10127;BME280;13080;42.608;23.362;2023-03-18T04:48:09;150334.47;;;-3.08;100.00
10127;BME280;13080;42.608;23.362;2023-03-18T04:50:36;150337.06;;;-3.07;100.00
10127;BME280;13080;42.608;23.362;2023-03-18T04:53:02;150335.72;;;-3.07;100.00
10127;BME280;13080;42.608;23.362;2023-03-18T04:55:29;150342.19;;;-3.05;100.00
10127;BME280;13080;42.608;23.362;2023-03-18T04:57:56;150360.16;;;-2.98;100.00
10127;BME280;13080;42.608;23.362;2023-03-18T05:00:24;150370.44;;;-2.94;100.00
10127;BME280;13080;42.608;23.362;2023-03-18T05:02:52;150379.41;;;-2.90;100.00
10127;BME280;13080;42.608;23.362;2023-03-18T05:05:18;150390.97;;;-2.85;100.00
10127;BME280;13080;42.608;23.362;2023-03-18T05:07:45;150396.13;;;-2.83;100.00
10127;BME280;13080;42.608;23.362;2023-03-18T05:10:12;150403.84;;;-2.80;100.00
10127;BME280;13080;42.608;23.362;2023-03-18T05:12:39;150423.09;;;-2.73;100.00
10127;BME280;13080;42.608;23.362;2023-03-18T05:15:07;150439.81;;;-2.66;100.00
10127;BME280;13080;42.608;23.362;2023-03-18T05:17:35;150452.63;;;-2.61;100.00
10127;BME280;13080;42.608;23.362;2023-03-18T05:20:03;150470.63;;;-2.54;100.00
10127;BME280;13080;42.608;23.362;2023-03-18T05:22:31;150486.06;;;-2.47;100.00
10127;BME280;13080;42.608;23.362;2023-03-18T05:24:58;150509.19;;;-2.38;100.00
10127;BME280;13080;42.608;23.362;2023-03-18T05:27:26;150522.06;;;-2.33;100.00
10127;BME280;13080;42.608;23.362;2023-03-18T05:29:54;150561.91;;;-2.17;100.00
10127;BME280;13080;42.608;23.362;2023-03-18T05:32:21;150574.75;;;-2.12;100.00
10127;BME280;13080;42.608;23.362;2023-03-18T05:34:49;150624.88;;;-1.92;100.00
10127;BME280;13080;42.608;23.362;2023-03-18T05:37:17;150659.59;;;-1.78;100.00
10127;BME280;13080;42.608;23.362;2023-03-18T05:39:43;150700.72;;;-1.62;100.00
10127;BME280;13080;42.608;23.362;2023-03-18T05:42:13;150734.16;;;-1.49;99.34
10127;BME280;13080;42.608;23.362;2023-03-18T05:44:40;150780.44;;;-1.30;97.86
10127;BME280;13080;42.608;23.362;2023-03-18T05:47:08;150812.63;;;-1.17;95.70
10127;BME280;13080;42.608;23.362;2023-03-18T05:49:34;150880.81;;;-0.90;94.84
10127;BME280;13080;42.608;23.362;2023-03-18T05:52:03;150929.72;;;-0.71;92.84
10127;BME280;13080;42.608;23.362;2023-03-18T05:54:30;150988.91;;;-0.47;91.27
10127;BME280;13080;42.608;23.362;2023-03-18T05:56:58;151036.56;;;-0.28;90.54
10127;BME280;13080;42.608;23.362;2023-03-18T05:59:25;151091.94;;;-0.06;89.25
10127;BME280;13080;42.608;23.362;2023-03-18T06:01:52;151104.81;;;-0.01;88.91
10127;BME280;13080;42.608;23.362;2023-03-18T06:04:20;151122.81;;;0.06;89.43
10127;BME280;13080;42.608;23.362;2023-03-18T06:06:47;151143.44;;;0.14;89.42
10127;BME280;13080;42.608;23.362;2023-03-18T06:09:15;151161.47;;;0.22;88.35
10127;BME280;13080;42.608;23.362;2023-03-18T06:11:42;151194.97;;;0.35;88.32
10127;BME280;13080;42.608;23.362;2023-03-18T06:14:11;151202.66;;;0.38;89.32
10127;BME280;13080;42.608;23.362;2023-03-18T06:16:40;151216.88;;;0.44;85.31
10127;BME280;13080;42.608;23.362;2023-03-18T06:19:08;151198.84;;;0.36;85.52
10127;BME280;13080;42.608;23.362;2023-03-18T06:21:36;151189.81;;;0.33;85.82
10127;BME280;13080;42.608;23.362;2023-03-18T06:24:04;151180.81;;;0.29;84.43
10127;BME280;13080;42.608;23.362;2023-03-18T06:26:32;151170.50;;;0.25;85.33
10127;BME280;13080;42.608;23.362;2023-03-18T06:28:59;151174.34;;;0.27;85.84
10127;BME280;13080;42.608;23.362;2023-03-18T06:31:25;151200.13;;;0.37;85.14
10127;BME280;13080;42.608;23.362;2023-03-18T06:33:52;151222.03;;;0.46;85.86
10127;BME280;13080;42.608;23.362;2023-03-18T06:36:20;151198.84;;;0.36;85.77
10127;BME280;13080;42.608;23.362;2023-03-18T06:38:47;151210.44;;;0.41;85.88
10127;BME280;13080;42.608;23.362;2023-03-18T06:41:14;151204.00;;;0.38;86.30
10127;BME280;13080;42.608;23.362;2023-03-18T06:43:42;151223.28;;;0.46;86.05
10127;BME280;13080;42.608;23.362;2023-03-18T06:46:12;151232.34;;;0.50;85.63
10127;BME280;13080;42.608;23.362;2023-03-18T06:48:39;151256.81;;;0.59;84.85
10127;BME280;13080;42.608;23.362;2023-03-18T06:51:06;151310.94;;;0.81;84.64
10127;BME280;13080;42.608;23.362;2023-03-18T06:53:33;151309.63;;;0.80;84.74
10127;BME280;13080;42.608;23.362;2023-03-18T06:56:01;151328.97;;;0.88;84.56
10127;BME280;13080;42.608;23.362;2023-03-18T06:58:27;151361.19;;;1.01;83.95
10127;BME280;13080;42.608;23.362;2023-03-18T07:00:56;151383.06;;;1.10;84.95
10127;BME280;13080;42.608;23.362;2023-03-18T07:03:23;151406.31;;;1.19;85.43
10127;BME280;13080;42.608;23.362;2023-03-18T07:05:50;151424.34;;;1.26;84.11
10127;BME280;13080;42.608;23.362;2023-03-18T07:08:17;151457.88;;;1.39;83.55
10127;BME280;13080;42.608;23.362;2023-03-18T07:10:44;151456.53;;;1.39;83.75
10127;BME280;13080;42.608;23.362;2023-03-18T07:13:10;151464.31;;;1.42;82.42
10127;BME280;13080;42.608;23.362;2023-03-18T07:15:39;151482.34;;;1.49;83.19
10127;BME280;13080;42.608;23.362;2023-03-18T07:18:08;151488.78;;;1.52;83.82
10127;BME280;13080;42.608;23.362;2023-03-18T07:20:36;151519.78;;;1.64;82.30
10127;BME280;13080;42.608;23.362;2023-03-18T07:23:03;151540.38;;;1.72;81.44
10127;BME280;13080;42.608;23.362;2023-03-18T07:25:30;151546.81;;;1.75;82.87
10127;BME280;13080;42.608;23.362;2023-03-18T07:27:57;151584.22;;;1.90;80.87
10127;BME280;13080;42.608;23.362;2023-03-18T07:30:24;151588.13;;;1.91;80.91
10127;BME280;13080;42.608;23.362;2023-03-18T07:32:51;151579.06;;;1.87;81.53
10127;BME280;13080;42.608;23.362;2023-03-18T07:35:20;151620.34;;;2.04;79.73
10127;BME280;13080;42.608;23.362;2023-03-18T07:37:47;151644.88;;;2.14;80.42
10127;BME280;13080;42.608;23.362;2023-03-18T07:40:14;151630.66;;;2.08;80.00
10127;BME280;13080;42.608;23.362;2023-03-18T07:42:41;151652.59;;;2.17;80.53
10127;BME280;13080;42.608;23.362;2023-03-18T07:45:09;151674.53;;;2.25;79.33
10127;BME280;13080;42.608;23.362;2023-03-18T07:47:36;151705.53;;;2.38;79.99
10127;BME280;13080;42.608;23.362;2023-03-18T07:50:03;151696.47;;;2.34;80.87
10127;BME280;13080;42.608;23.362;2023-03-18T07:52:31;151678.41;;;2.27;83.31
10127;BME280;13080;42.608;23.362;2023-03-18T07:54:58;151693.88;;;2.33;84.39
10127;BME280;13080;42.608;23.362;2023-03-18T07:57:26;151706.81;;;2.38;83.33
10127;BME280;13080;42.608;23.362;2023-03-18T07:59:52;151684.88;;;2.29;83.47
10127;BME280;13080;42.608;23.362;2023-03-18T08:02:19;151706.81;;;2.38;83.19
10127;BME280;13080;42.608;23.362;2023-03-18T08:04:48;151710.66;;;2.40;82.96
10127;BME280;13080;42.608;23.362;2023-03-18T08:07:16;151715.81;;;2.42;83.05
10127;BME280;13080;42.608;23.362;2023-03-18T08:09:44;151731.31;;;2.48;83.30
10127;BME280;13080;42.608;23.362;2023-03-18T08:12:11;151724.84;;;2.45;83.44
10127;BME280;13080;42.608;23.362;2023-03-18T08:14:38;151719.69;;;2.43;82.00
10127;BME280;13080;42.608;23.362;2023-03-18T08:17:05;151770.03;;;2.63;82.17
10127;BME280;13080;42.608;23.362;2023-03-18T08:19:33;151786.81;;;2.70;82.35
10127;BME280;13080;42.608;23.362;2023-03-18T08:22:00;151825.53;;;2.85;82.86
10127;BME280;13080;42.608;23.362;2023-03-18T08:24:26;151896.53;;;3.13;80.07
10127;BME280;13080;42.608;23.362;2023-03-18T08:26:55;151930.09;;;3.27;78.94
10127;BME280;13080;42.608;23.362;2023-03-18T08:29:22;151928.81;;;3.26;80.13
10127;BME280;13080;42.608;23.362;2023-03-18T08:31:49;151974.00;;;3.44;80.46
10127;BME280;13080;42.608;23.362;2023-03-18T08:34:16;151992.09;;;3.51;79.70
10127;BME280;13080;42.608;23.362;2023-03-18T08:36:43;151993.38;;;3.52;78.77
10127;BME280;13080;42.608;23.362;2023-03-18T08:39:10;152007.59;;;3.58;79.54
10127;BME280;13080;42.608;23.362;2023-03-18T08:41:37;152029.56;;;3.66;81.28
10127;BME280;13080;42.608;23.362;2023-03-18T08:44:06;152045.06;;;3.72;79.06
10127;BME280;13080;42.608;23.362;2023-03-18T08:46:35;152048.91;;;3.74;80.20
10127;BME280;13080;42.608;23.362;2023-03-18T08:49:02;152045.06;;;3.72;79.80
10127;BME280;13080;42.608;23.362;2023-03-18T08:51:29;152068.31;;;3.82;79.51
10127;BME280;13080;42.608;23.362;2023-03-18T08:53:57;152059.25;;;3.78;77.83
10127;BME280;13080;42.608;23.362;2023-03-18T08:56:24;152050.25;;;3.74;76.36
10127;BME280;13080;42.608;23.362;2023-03-18T08:58:51;152060.53;;;3.79;77.63
10127;BME280;13080;42.608;23.362;2023-03-18T09:01:19;152077.34;;;3.85;76.85
10127;BME280;13080;42.608;23.362;2023-03-18T09:03:46;152099.31;;;3.94;75.92
10127;BME280;13080;42.608;23.362;2023-03-18T09:06:13;152116.09;;;4.01;75.51
10127;BME280;13080;42.608;23.362;2023-03-18T09:08:40;152132.91;;;4.07;76.26
10127;BME280;13080;42.608;23.362;2023-03-18T09:11:08;152180.75;;;4.26;76.71
10127;BME280;13080;42.608;23.362;2023-03-18T09:13:35;152189.75;;;4.30;73.20
10127;BME280;13080;42.608;23.362;2023-03-18T09:16:03;152210.44;;;4.38;69.59
10127;BME280;13080;42.608;23.362;2023-03-18T09:18:31;152197.53;;;4.33;71.45
10127;BME280;13080;42.608;23.362;2023-03-18T09:20:59;152196.22;;;4.32;70.30
10127;BME280;13080;42.608;23.362;2023-03-18T09:23:27;152206.56;;;4.36;70.43
10127;BME280;13080;42.608;23.362;2023-03-18T09:25:54;152180.75;;;4.26;67.83
10127;BME280;13080;42.608;23.362;2023-03-18T09:28:21;152194.94;;;4.32;67.99
10127;BME280;13080;42.608;23.362;2023-03-18T09:30:49;152197.53;;;4.33;60.45
10127;BME280;13080;42.608;23.362;2023-03-18T09:33:15;152223.38;;;4.43;61.44
10127;BME280;13080;42.608;23.362;2023-03-18T09:35:43;152278.97;;;4.65;62.03
10127;BME280;13080;42.608;23.362;2023-03-18T09:38:12;152309.97;;;4.77;63.90
10127;BME280;13080;42.608;23.362;2023-03-18T09:40:47;152339.75;;;4.89;58.86
10127;BME280;13080;42.608;23.362;2023-03-18T09:43:26;152289.31;;;4.69;57.61
10127;BME280;13080;42.608;23.362;2023-03-18T09:46:04;152335.84;;;4.88;62.21
10127;BME280;13080;42.608;23.362;2023-03-18T09:48:46;152359.09;;;4.97;63.91
10127;BME280;13080;42.608;23.362;2023-03-18T09:51:29;152423.81;;;5.23;60.96
10127;BME280;13080;42.608;23.362;2023-03-18T09:54:02;152431.53;;;5.26;59.62
10127;BME280;13080;42.608;23.362;2023-03-18T09:56:34;152386.28;;;5.08;58.95
10127;BME280;13080;42.608;23.362;2023-03-18T09:59:04;152435.44;;;5.27;58.51
10127;BME280;13080;42.608;23.362;2023-03-18T10:01:35;152465.19;;;5.39;59.92
10127;BME280;13080;42.608;23.362;2023-03-18T10:04:05;152496.19;;;5.51;58.68
10127;BME280;13080;42.608;23.362;2023-03-18T10:06:39;152538.91;;;5.68;57.31
10127;BME280;13080;42.608;23.362;2023-03-18T10:09:13;152491.03;;;5.49;55.09
10127;BME280;13080;42.608;23.362;2023-03-18T10:11:43;152509.16;;;5.56;57.41
10127;BME280;13080;42.608;23.362;2023-03-18T10:14:20;152469.06;;;5.40;55.31
10127;BME280;13080;42.608;23.362;2023-03-18T10:16:59;152431.53;;;5.26;58.20
10127;BME280;13080;42.608;23.362;2023-03-18T10:19:27;152452.25;;;5.34;57.96
10127;BME280;13080;42.608;23.362;2023-03-18T10:22:04;152452.25;;;5.34;59.56
10127;BME280;13080;42.608;23.362;2023-03-18T10:24:36;152519.47;;;5.60;57.92
10127;BME280;13080;42.608;23.362;2023-03-18T10:27:13;152545.38;;;5.71;54.81
10127;BME280;13080;42.608;23.362;2023-03-18T10:29:47;152537.63;;;5.68;55.70
10127;BME280;13080;42.608;23.362;2023-03-18T10:32:27;152445.75;;;5.31;54.53
10127;BME280;13080;42.608;23.362;2023-03-18T10:35:02;152441.91;;;5.30;57.28
10127;BME280;13080;42.608;23.362;2023-03-18T10:37:48;152392.72;;;5.10;55.22
10127;BME280;13080;42.608;23.362;2023-03-18T10:40:18;152385.00;;;5.07;55.60
10127;BME280;13080;42.608;23.362;2023-03-18T10:42:47;152383.72;;;5.07;57.04
10127;BME280;13080;42.608;23.362;2023-03-18T10:45:21;152416.00;;;5.19;54.26
10127;BME280;13080;42.608;23.362;2023-03-18T10:47:53;152434.09;;;5.27;54.19
10127;BME280;13080;42.608;23.362;2023-03-18T10:50:25;152470.34;;;5.41;53.79
10127;BME280;13080;42.608;23.362;2023-03-18T10:53:01;152518.19;;;5.60;56.04
10127;BME280;13080;42.608;23.362;2023-03-18T10:55:34;152542.81;;;5.70;55.06
10127;BME280;13080;42.608;23.362;2023-03-18T10:58:13;152584.19;;;5.86;54.94
10127;BME280;13080;42.608;23.362;2023-03-18T11:00:40;152623.09;;;6.01;53.78
10127;BME280;13080;42.608;23.362;2023-03-18T11:03:19;152607.53;;;5.95;54.78
10127;BME280;13080;42.608;23.362;2023-03-18T11:05:48;152625.66;;;6.02;53.39
10127;BME280;13080;42.608;23.362;2023-03-18T11:08:31;152681.31;;;6.24;54.93
10127;BME280;13080;42.608;23.362;2023-03-18T11:11:12;152773.22;;;6.61;50.05
10127;BME280;13080;42.608;23.362;2023-03-18T11:13:45;152870.34;;;6.99;46.35
10127;BME280;13080;42.608;23.362;2023-03-18T11:16:21;152901.44;;;7.12;45.82
10127;BME280;13080;42.608;23.362;2023-03-18T11:18:50;152940.31;;;7.27;48.51
10127;BME280;13080;42.608;23.362;2023-03-18T11:21:17;152902.72;;;7.12;46.54
10127;BME280;13080;42.608;23.362;2023-03-18T11:23:52;152869.06;;;6.99;46.57
10127;BME280;13080;42.608;23.362;2023-03-18T11:26:46;152755.09;;;6.54;44.85
10127;BME280;13080;42.608;23.362;2023-03-18T11:29:16;152685.22;;;6.26;45.70
10127;BME280;13080;42.608;23.362;2023-03-18T11:31:51;152617.91;;;5.99;47.72
10127;BME280;13080;42.608;23.362;2023-03-18T11:34:19;152602.31;;;5.93;48.62
10127;BME280;13080;42.608;23.362;2023-03-18T11:36:54;152584.19;;;5.86;46.94
10127;BME280;13080;42.608;23.362;2023-03-18T11:39:26;152588.09;;;5.88;48.82
10127;BME280;13080;42.608;23.362;2023-03-18T11:41:56;152615.28;;;5.98;49.54
10127;BME280;13080;42.608;23.362;2023-03-18T11:44:27;152655.41;;;6.14;50.55
10127;BME280;13080;42.608;23.362;2023-03-18T11:46:59;152691.69;;;6.29;48.58
10127;BME280;13080;42.608;23.362;2023-03-18T11:49:28;152703.31;;;6.33;48.37
10127;BME280;13080;42.608;23.362;2023-03-18T11:52:14;152733.09;;;6.45;47.93
10127;BME280;13080;42.608;23.362;2023-03-18T11:55:03;152729.25;;;6.43;47.17
10127;BME280;13080;42.608;23.362;2023-03-18T11:57:45;152691.69;;;6.29;48.18
10127;BME280;13080;42.608;23.362;2023-03-18T12:00:20;152717.53;;;6.39;47.64
10127;BME280;13080;42.608;23.362;2023-03-18T12:03:21;152698.13;;;6.31;46.30
10127;BME280;13080;42.608;23.362;2023-03-18T12:06:04;152738.28;;;6.47;47.47
10127;BME280;13080;42.608;23.362;2023-03-18T12:08:45;152821.16;;;6.80;48.23
10127;BME280;13080;42.608;23.362;2023-03-18T12:11:21;152831.53;;;6.84;46.75
10127;BME280;13080;42.608;23.362;2023-03-18T12:13:59;152771.94;;;6.60;47.24
10127;BME280;13080;42.608;23.362;2023-03-18T12:16:39;152770.66;;;6.60;47.25
10127;BME280;13080;42.608;23.362;2023-03-18T12:19:43;152687.78;;;6.27;47.01
10127;BME280;13080;42.608;23.362;2023-03-18T12:22:27;152742.16;;;6.49;48.08
10127;BME280;13080;42.608;23.362;2023-03-18T12:25:13;152770.66;;;6.60;47.78
10127;BME280;13080;42.608;23.362;2023-03-18T12:27:53;152841.84;;;6.88;47.05
10127;BME280;13080;42.608;23.362;2023-03-18T12:30:48;152861.31;;;6.96;46.04
10127;BME280;13080;42.608;23.362;2023-03-18T12:33:31;152836.66;;;6.86;48.37
10127;BME280;13080;42.608;23.362;2023-03-18T12:36:12;152843.19;;;6.89;46.82
10127;BME280;13080;42.608;23.362;2023-03-18T12:42:01;152817.25;;;6.78;45.40
10127;BME280;13080;42.608;23.362;2023-03-18T12:44:41;152814.69;;;6.77;47.45
10127;BME280;13080;42.608;23.362;2023-03-18T12:47:13;152861.31;;;6.96;47.39
10127;BME280;13080;42.608;23.362;2023-03-18T12:49:45;152850.94;;;6.92;46.04
10127;BME280;13080;42.608;23.362;2023-03-18T12:52:23;152856.13;;;6.94;46.35
10127;BME280;13080;42.608;23.362;2023-03-18T12:55:08;152832.81;;;6.84;49.45
10127;BME280;13080;42.608;23.362;2023-03-18T12:57:44;152779.69;;;6.63;48.10